• Join FlightAware (Why Join?)
  • Login
  • US Flag 
06:04PM EDT


 

Airport Tracker/Info


-or-


 

Live Flight TrackerFlight Track Log ✈ UPS1337 ✈ 25-Apr-2014 ✈ KPIE - KRDU

Flight Track Log - Related Links

Times and Time Zones

All times are in EDT time to prevent confusion due to time zone crossing. See the UPS1337 flight status page for this flight to view local times or setup timezone preferences in your user account.

Time Position Orientation Groundspeed Altitude Reporting Facility
EDT Latitude Longitude Course Direction KTS MPH feet Rate Location/Type
09:43PM 27.9167 -82.6833 360° North 166 191 800  Level Tampa TRACON
09:44PM 27.9667 -82.6833 360° North 229 264 3,200 1,680 Climbing Tampa TRACON
09:45PM 28.0333 -82.6500 24° Northeast 245 282 4,000 2,520 Climbing Tampa TRACON
09:51PM 28.5675 -82.6604 354° North 420 483 20,400 2,820 Climbing FlightAware ADS-B (KMCO)
09:52PM 28.6631 -82.6653 360° North 430 495 22,400 2,520 Climbing FlightAware ADS-B (KMCO)
09:53PM 28.8226 -82.6677 359° North 454 522 25,700 2,040 Climbing FlightAware ADS-B (KMCO)
09:54PM 28.9264 -82.6690 359° North 464 534 26,800 1,320 Climbing FlightAware ADS-B (KMCO)
10:00PM 29.6366 -82.6769 359° North 448 516 35,000 1,200 Climbing FlightAware ADS-B (KMCO)
10:01PM 29.7542 -82.6782 359° North 446 513 35,000  Level FlightAware ADS-B (KMCO)
10:01PM 29.8524 -82.6794 360° North 446 513 35,000  Level FlightAware ADS-B (KMCO)
10:02PM 29.9418 -82.6805 359° North 447 514 35,000  Level FlightAware ADS-B (KMCO)
10:02PM 30.0197 -82.6814 360° North 447 514 35,000  Level FlightAware ADS-B (KMCO)
10:03PM 30.1082 -82.6824 360° North 448 516 35,000  Level FlightAware ADS-B (KMCO)
10:04PM 30.1931 -82.6833 360° North 448 516 35,000  Level FlightAware ADS-B (KMCO)
10:05PM 30.2782 -82.6843 360° North 445 512 35,000  Level FlightAware ADS-B (KMCO)
10:05PM 30.3577 -82.6852 360° North 440 506 35,000  Level FlightAware ADS-B (KMCO)
10:06PM 30.4011 -82.6855 North 438 504 35,000  Level FlightAware ADS-B (KMCO)
10:08PM 30.6540 -82.6187 22° Northeast 467 537 35,000  Level FlightAware ADS-B (KMCO)
10:09PM 30.7756 -82.5661 22° Northeast 443 510 35,000 -60 Level Jacksonville Center
10:10PM 30.8944 -82.5078 23° Northeast 454 522 34,900 -60 Descending Jacksonville Center
10:11PM 31.0133 -82.4514 22° Northeast 454 522 34,900  Level Jacksonville Center
10:12PM 31.1342 -82.3925 23° Northeast 454 522 35,000  Climbing Jacksonville Center
10:13PM 31.2550 -82.3361 22° Northeast 459 528 35,000  Level Jacksonville Center
10:14PM 31.3778 -82.2794 22° Northeast 464 534 35,000  Level Jacksonville Center
10:15PM 31.4986 -82.2225 22° Northeast 464 534 35,000  Level Jacksonville Center
10:16PM 31.6194 -82.1631 23° Northeast 469 540 35,000  Level Jacksonville Center
10:17PM 31.7278 -82.1086 23° Northeast 469 540 35,000  Level Jacksonville Center
10:18PM 31.8631 -82.0436 22° Northeast 474 545 35,000  Level Jacksonville Center
10:19PM 31.9878 -81.9839 22° Northeast 474 545 35,000  Level Jacksonville Center
10:20PM 32.0961 -81.9311 22° Northeast 474 545 35,000  Level Jacksonville Center
10:21PM 32.2292 -81.8683 22° Northeast 474 545 35,000  Level Jacksonville Center
10:22PM 32.3519 -81.8081 23° Northeast 468 539 35,000  Level Jacksonville Center
10:23PM 32.4600 -81.7550 23° Northeast 473 544 35,000  Level Jacksonville Center
10:24PM 32.5931 -81.6892 23° Northeast 473 544 35,000  Level Jacksonville Center
10:25PM 32.7031 -81.6336 23° Northeast 473 544 35,000 -300 Level Jacksonville Center
10:26PM 32.8214 -81.5750 23° Northeast 473 544 34,500 -780 Descending Jacksonville Center
10:27PM 32.9439 -81.5164 22° Northeast 473 544 33,500 -360 Descending Jacksonville Center
10:33PM 33.6037 -81.0269 34° Northeast 460 529 32,400 -300 Descending FlightAware ADS-B (KCDN)
10:33PM 33.6644 -80.9782 34° Northeast 455 524 31,900 -960 Descending FlightAware ADS-B (KCDN)
10:34PM 33.7389 -80.9181 34° Northeast 450 518 31,200 -780 Descending FlightAware ADS-B (KCDN)
10:34PM 33.7920 -80.8750 34° Northeast 453 521 31,000 -240 Descending FlightAware ADS-B (KCDN)
10:35PM 33.8473 -80.8304 34° Northeast 457 526 31,000  Level FlightAware ADS-B (KCDN)
10:36PM 33.9260 -80.7666 34° Northeast 462 532 31,000  Level FlightAware ADS-B (KCDN)
10:36PM 33.9774 -80.7249 34° Northeast 466 536 31,000  Level FlightAware ADS-B (KCDN)
10:37PM 34.0332 -80.6794 34° Northeast 466 536 31,000  Level FlightAware ADS-B (KCDN)
10:37PM 34.0883 -80.6343 34° Northeast 467 537 31,000  Level FlightAware ADS-B (KCDN)
10:38PM 34.1675 -80.5696 34° Northeast 464 534 31,000  Level FlightAware ADS-B (KCDN)
10:39PM 34.2291 -80.5193 34° Northeast 463 533 31,000 -420 Level FlightAware ADS-B (KCDN)
10:39PM 34.3124 -80.4513 34° Northeast 465 535 30,500 -840 Descending FlightAware ADS-B (KCDN)
10:40PM 34.3714 -80.4028 34° Northeast 467 537 29,900 -960 Descending FlightAware ADS-B (KCDN)
10:40PM 34.4273 -80.3568 34° Northeast 464 534 29,500 -1,320 Descending FlightAware ADS-B (KCDN)
10:41PM 34.4881 -80.3065 35° Northeast 457 526 28,500 -2,160 Descending FlightAware ADS-B (KCDN)
10:42PM 34.5516 -80.2541 34° Northeast 449 517 27,000 -2,280 Descending FlightAware ADS-B (KCDN)
10:43PM 34.6367 -80.1844 34° Northeast 451 519 24,800 -1,980 Descending Washington Center
10:44PM 34.7392 -80.0992 34° Northeast 451 519 23,000 -900 Descending Washington Center
10:45PM 34.8436 -79.9953 39° Northeast 451 519 23,000  Level Washington Center
10:46PM 34.9383 -79.8922 42° Northeast 454 522 23,000  Level Washington Center
10:47PM 35.0336 -79.7886 42° Northeast 457 526 23,000 -540 Level Washington Center
10:48PM 35.1347 -79.6958 37° Northeast 455 524 22,000 -2,940 Descending Washington Center
10:49PM 35.2539 -79.5925 35° Northeast 442 509 17,000 -4,740 Descending Washington Center
10:49PM 35.2769 -79.5719 36° Northeast 411 473 15,900 -3,780 Descending Washington Center
10:50PM 35.3461 -79.5133 35° Northeast 408 470 13,300 -3,360 Descending Washington Center
10:50PM 35.3864 -79.4794 34° Northeast 383 441 11,900 -1,980 Descending Washington Center
10:51PM 35.4300 -79.4400 36° Northeast 374 430 11,200 -840 Descending Washington Center
10:51PM 35.4639 -79.4131 33° Northeast 300 345 11,100 -240 Descending Washington Center
10:52PM 35.5069 -79.3814 31° Northeast 304 350 11,000 -120 Descending Washington Center
10:52PM 35.5333 -79.3403 52° Northeast 310 357 11,000  Level Washington Center
10:53PM 35.5589 -79.2983 53° Northeast 309 356 11,000  Level Washington Center
10:53PM 35.5803 -79.2619 54° Northeast 310 357 11,000 -720 Level Washington Center
10:54PM 35.6133 -79.2075 53° Northeast 310 357 10,300 -1,440 Descending Washington Center
10:54PM 35.6300 -79.1761 57° Northeast 307 353 9,600 -1,380 Descending Washington Center
10:55PM 35.6642 -79.1233 51° Northeast 310 357 8,900 -1,080 Descending Washington Center
10:55PM 35.6817 -79.0906 57° Northeast 307 353 8,500 -780 Descending Washington Center
10:56PM 35.7064 -79.0500 53° Northeast 300 345 8,100 -540 Descending Washington Center
10:56PM 35.7308 -79.0094 53° Northeast 281 323 8,000 -120 Descending Washington Center
10:57PM 35.7606 -78.9819 37° Northeast 279 321 8,000  Level Washington Center
10:57PM 35.7853 -78.9625 33° Northeast 271 312 8,000  Level Washington Center
10:58PM 35.8375 -78.9222 32° Northeast 272 313 8,000  Level Washington Center
10:58PM 35.8506 -78.9119 33° Northeast 275 316 8,000 -1,320 Level Washington Center
10:59PM 35.9069 -78.8678 32° Northeast 219 252 6,400 -2,220 Descending Washington Center
11:00PM 35.9486 -78.8214 42° Northeast 213 245 3,700 -2,280 Descending Washington Center
11:01PM 35.9925 -78.7756 40° Northeast 192 221 2,200 -780 Descending Washington Center
11:02PM 36.0094 -78.7269 67° East 213 245 2,200  Level Washington Center
11:03PM 35.9661 -78.6972 151° Southeast 198 228 2,200 -360 Level Washington Center
11:04PM 35.9350 -78.7272 218° Southwest 148 170 1,500 -660 Descending Washington Center
11:05PM 35.9108 -78.7567 225° Southwest 128 147 900 -480 Descending Washington Center
11:06PM 35.8819 -78.7911 224° Southwest 127 146 600 -300 Descending Washington Center
11:08PM 35.8776 -78.7875 51° Northeast  Level Estimated